sensor_id;sensor_type;location;lat;lon;timestamp;P1;durP1;ratioP1;P2;durP2;ratioP2
57341;SDS011;43175;51.002;18.316;2023-01-08T00:01:41;70.70;;;36.20;;
57341;SDS011;43175;51.002;18.316;2023-01-08T00:04:07;73.60;;;36.80;;
57341;SDS011;43175;51.002;18.316;2023-01-08T00:06:32;65.00;;;35.40;;
57341;SDS011;43175;51.002;18.316;2023-01-08T00:08:58;69.50;;;37.00;;
57341;SDS011;43175;51.002;18.316;2023-01-08T00:11:24;73.70;;;39.10;;
57341;SDS011;43175;51.002;18.316;2023-01-08T00:13:49;74.10;;;38.30;;
57341;SDS011;43175;51.002;18.316;2023-01-08T00:16:15;72.70;;;38.90;;
57341;SDS011;43175;51.002;18.316;2023-01-08T00:18:42;69.60;;;38.00;;
57341;SDS011;43175;51.002;18.316;2023-01-08T00:21:09;72.60;;;38.00;;
57341;SDS011;43175;51.002;18.316;2023-01-08T00:23:35;68.70;;;37.60;;
57341;SDS011;43175;51.002;18.316;2023-01-08T00:26:01;66.80;;;36.70;;
57341;SDS011;43175;51.002;18.316;2023-01-08T00:28:28;76.20;;;38.70;;
57341;SDS011;43175;51.002;18.316;2023-01-08T00:30:53;71.70;;;39.50;;
57341;SDS011;43175;51.002;18.316;2023-01-08T00:33:19;75.30;;;40.10;;
57341;SDS011;43175;51.002;18.316;2023-01-08T00:35:45;73.00;;;39.20;;
57341;SDS011;43175;51.002;18.316;2023-01-08T00:38:11;72.00;;;39.00;;
57341;SDS011;43175;51.002;18.316;2023-01-08T00:40:36;74.80;;;39.80;;
57341;SDS011;43175;51.002;18.316;2023-01-08T00:43:03;72.60;;;38.90;;
57341;SDS011;43175;51.002;18.316;2023-01-08T00:45:28;70.30;;;38.50;;
57341;SDS011;43175;51.002;18.316;2023-01-08T00:47:54;74.10;;;37.20;;
57341;SDS011;43175;51.002;18.316;2023-01-08T00:50:19;70.10;;;37.50;;
57341;SDS011;43175;51.002;18.316;2023-01-08T00:52:45;66.60;;;35.80;;
57341;SDS011;43175;51.002;18.316;2023-01-08T00:55:10;70.30;;;38.30;;
57341;SDS011;43175;51.002;18.316;2023-01-08T00:57:36;72.20;;;36.70;;
57341;SDS011;43175;51.002;18.316;2023-01-08T01:00:39;69.10;;;37.50;;
57341;SDS011;43175;51.002;18.316;2023-01-08T01:03:04;67.60;;;36.10;;
57341;SDS011;43175;51.002;18.316;2023-01-08T01:05:30;67.20;;;36.40;;
57341;SDS011;43175;51.002;18.316;2023-01-08T01:07:55;68.70;;;35.10;;
57341;SDS011;43175;51.002;18.316;2023-01-08T01:10:21;60.60;;;34.60;;
57341;SDS011;43175;51.002;18.316;2023-01-08T01:12:47;63.70;;;34.90;;
57341;SDS011;43175;51.002;18.316;2023-01-08T01:15:14;67.20;;;34.90;;
57341;SDS011;43175;51.002;18.316;2023-01-08T01:17:41;67.70;;;36.20;;
57341;SDS011;43175;51.002;18.316;2023-01-08T01:20:09;71.20;;;36.80;;
57341;SDS011;43175;51.002;18.316;2023-01-08T01:22:36;64.90;;;36.00;;
57341;SDS011;43175;51.002;18.316;2023-01-08T01:25:05;67.50;;;36.70;;
57341;SDS011;43175;51.002;18.316;2023-01-08T01:27:31;67.30;;;36.80;;
57341;SDS011;43175;51.002;18.316;2023-01-08T01:29:56;68.00;;;36.20;;
57341;SDS011;43175;51.002;18.316;2023-01-08T01:32:22;64.90;;;36.30;;
57341;SDS011;43175;51.002;18.316;2023-01-08T01:34:47;63.90;;;35.50;;
57341;SDS011;43175;51.002;18.316;2023-01-08T01:37:13;67.30;;;35.50;;
57341;SDS011;43175;51.002;18.316;2023-01-08T01:39:40;64.70;;;34.40;;
57341;SDS011;43175;51.002;18.316;2023-01-08T01:42:14;60.10;;;34.20;;
57341;SDS011;43175;51.002;18.316;2023-01-08T01:44:59;65.10;;;34.60;;
57341;SDS011;43175;51.002;18.316;2023-01-08T01:47:29;62.50;;;34.40;;
57341;SDS011;43175;51.002;18.316;2023-01-08T01:52:41;69.00;;;33.70;;
57341;SDS011;43175;51.002;18.316;2023-01-08T01:55:09;63.60;;;33.90;;
57341;SDS011;43175;51.002;18.316;2023-01-08T01:57:36;65.90;;;34.70;;
57341;SDS011;43175;51.002;18.316;2023-01-08T02:00:04;65.60;;;33.70;;
57341;SDS011;43175;51.002;18.316;2023-01-08T02:02:31;65.70;;;33.10;;
57341;SDS011;43175;51.002;18.316;2023-01-08T02:04:58;61.80;;;33.20;;
57341;SDS011;43175;51.002;18.316;2023-01-08T02:07:30;63.90;;;34.60;;
57341;SDS011;43175;51.002;18.316;2023-01-08T02:10:03;66.50;;;34.70;;
57341;SDS011;43175;51.002;18.316;2023-01-08T02:12:35;65.40;;;33.50;;
57341;SDS011;43175;51.002;18.316;2023-01-08T02:15:13;68.10;;;33.80;;
57341;SDS011;43175;51.002;18.316;2023-01-08T02:20:31;60.40;;;33.80;;
57341;SDS011;43175;51.002;18.316;2023-01-08T02:23:07;61.10;;;32.30;;
57341;SDS011;43175;51.002;18.316;2023-01-08T02:25:37;65.00;;;32.10;;
57341;SDS011;43175;51.002;18.316;2023-01-08T02:28:06;60.40;;;32.50;;
57341;SDS011;43175;51.002;18.316;2023-01-08T02:30:33;65.40;;;32.50;;
57341;SDS011;43175;51.002;18.316;2023-01-08T02:32:59;63.30;;;32.20;;
57341;SDS011;43175;51.002;18.316;2023-01-08T02:35:32;64.10;;;33.20;;
57341;SDS011;43175;51.002;18.316;2023-01-08T02:38:08;60.30;;;32.70;;
57341;SDS011;43175;51.002;18.316;2023-01-08T02:40:46;64.00;;;31.80;;
57341;SDS011;43175;51.002;18.316;2023-01-08T02:43:21;59.20;;;31.20;;
57341;SDS011;43175;51.002;18.316;2023-01-08T02:45:53;62.90;;;33.30;;
57341;SDS011;43175;51.002;18.316;2023-01-08T02:48:30;57.80;;;32.10;;
57341;SDS011;43175;51.002;18.316;2023-01-08T02:53:32;60.00;;;30.70;;
57341;SDS011;43175;51.002;18.316;2023-01-08T02:56:01;58.10;;;30.70;;
57341;SDS011;43175;51.002;18.316;2023-01-08T02:58:28;55.70;;;30.40;;
57341;SDS011;43175;51.002;18.316;2023-01-08T03:00:56;58.20;;;29.90;;
57341;SDS011;43175;51.002;18.316;2023-01-08T03:03:25;58.30;;;30.00;;
57341;SDS011;43175;51.002;18.316;2023-01-08T03:05:53;54.90;;;29.70;;
57341;SDS011;43175;51.002;18.316;2023-01-08T03:08:21;58.60;;;28.80;;
57341;SDS011;43175;51.002;18.316;2023-01-08T03:10:48;56.60;;;29.50;;
57341;SDS011;43175;51.002;18.316;2023-01-08T03:13:19;59.50;;;29.30;;
57341;SDS011;43175;51.002;18.316;2023-01-08T03:15:49;51.30;;;27.80;;
57341;SDS011;43175;51.002;18.316;2023-01-08T03:18:20;56.50;;;29.40;;
57341;SDS011;43175;51.002;18.316;2023-01-08T03:20:50;56.20;;;28.80;;
57341;SDS011;43175;51.002;18.316;2023-01-08T03:23:16;55.10;;;27.90;;
57341;SDS011;43175;51.002;18.316;2023-01-08T03:25:43;52.40;;;28.40;;
57341;SDS011;43175;51.002;18.316;2023-01-08T03:28:23;54.40;;;27.90;;
57341;SDS011;43175;51.002;18.316;2023-01-08T03:30:54;54.70;;;27.40;;
57341;SDS011;43175;51.002;18.316;2023-01-08T03:33:21;53.10;;;27.80;;
57341;SDS011;43175;51.002;18.316;2023-01-08T03:35:49;52.20;;;28.20;;
57341;SDS011;43175;51.002;18.316;2023-01-08T03:38:26;55.20;;;27.60;;
57341;SDS011;43175;51.002;18.316;2023-01-08T03:40:55;53.90;;;27.50;;
57341;SDS011;43175;51.002;18.316;2023-01-08T03:43:23;51.10;;;27.60;;
57341;SDS011;43175;51.002;18.316;2023-01-08T03:45:50;64.80;;;29.20;;
57341;SDS011;43175;51.002;18.316;2023-01-08T03:48:18;49.60;;;26.40;;
57341;SDS011;43175;51.002;18.316;2023-01-08T03:50:45;53.50;;;27.80;;
57341;SDS011;43175;51.002;18.316;2023-01-08T03:53:11;52.60;;;27.20;;
57341;SDS011;43175;51.002;18.316;2023-01-08T03:55:37;53.80;;;27.20;;
57341;SDS011;43175;51.002;18.316;2023-01-08T03:58:02;53.30;;;27.30;;
57341;SDS011;43175;51.002;18.316;2023-01-08T04:00:28;53.60;;;28.70;;
57341;SDS011;43175;51.002;18.316;2023-01-08T04:02:53;51.50;;;26.30;;
57341;SDS011;43175;51.002;18.316;2023-01-08T04:05:19;53.00;;;27.00;;
57341;SDS011;43175;51.002;18.316;2023-01-08T04:07:44;48.90;;;26.20;;
57341;SDS011;43175;51.002;18.316;2023-01-08T04:10:10;56.50;;;28.30;;
57341;SDS011;43175;51.002;18.316;2023-01-08T04:12:36;54.60;;;27.90;;
57341;SDS011;43175;51.002;18.316;2023-01-08T04:15:01;56.70;;;28.70;;
57341;SDS011;43175;51.002;18.316;2023-01-08T04:17:27;54.60;;;29.30;;
57341;SDS011;43175;51.002;18.316;2023-01-08T04:19:52;53.60;;;27.80;;
57341;SDS011;43175;51.002;18.316;2023-01-08T04:22:18;54.60;;;28.50;;
57341;SDS011;43175;51.002;18.316;2023-01-08T04:24:43;58.30;;;29.40;;
57341;SDS011;43175;51.002;18.316;2023-01-08T04:27:08;55.40;;;27.80;;
57341;SDS011;43175;51.002;18.316;2023-01-08T04:29:34;54.30;;;27.80;;
57341;SDS011;43175;51.002;18.316;2023-01-08T04:32:00;55.70;;;28.60;;
57341;SDS011;43175;51.002;18.316;2023-01-08T04:34:25;53.20;;;28.80;;
57341;SDS011;43175;51.002;18.316;2023-01-08T04:36:50;54.60;;;29.20;;
57341;SDS011;43175;51.002;18.316;2023-01-08T04:39:16;53.00;;;28.90;;
57341;SDS011;43175;51.002;18.316;2023-01-08T04:41:41;52.60;;;28.10;;
57341;SDS011;43175;51.002;18.316;2023-01-08T04:44:07;54.00;;;28.90;;
57341;SDS011;43175;51.002;18.316;2023-01-08T04:46:33;56.50;;;29.10;;
57341;SDS011;43175;51.002;18.316;2023-01-08T04:48:59;53.20;;;28.90;;
57341;SDS011;43175;51.002;18.316;2023-01-08T04:51:24;56.10;;;28.70;;
57341;SDS011;43175;51.002;18.316;2023-01-08T04:53:50;52.80;;;28.60;;
57341;SDS011;43175;51.002;18.316;2023-01-08T04:56:16;53.60;;;28.20;;
57341;SDS011;43175;51.002;18.316;2023-01-08T04:58:42;53.70;;;28.90;;
57341;SDS011;43175;51.002;18.316;2023-01-08T05:01:09;54.60;;;29.80;;
57341;SDS011;43175;51.002;18.316;2023-01-08T05:03:38;54.10;;;27.50;;
57341;SDS011;43175;51.002;18.316;2023-01-08T05:06:04;59.50;;;30.00;;
57341;SDS011;43175;51.002;18.316;2023-01-08T05:08:31;54.70;;;29.10;;
57341;SDS011;43175;51.002;18.316;2023-01-08T05:11:00;59.00;;;29.80;;
57341;SDS011;43175;51.002;18.316;2023-01-08T05:13:25;55.90;;;30.40;;
57341;SDS011;43175;51.002;18.316;2023-01-08T05:15:52;59.60;;;30.40;;
57341;SDS011;43175;51.002;18.316;2023-01-08T05:18:17;56.10;;;28.80;;
57341;SDS011;43175;51.002;18.316;2023-01-08T05:20:43;59.00;;;30.20;;
57341;SDS011;43175;51.002;18.316;2023-01-08T05:23:08;59.20;;;30.70;;
57341;SDS011;43175;51.002;18.316;2023-01-08T05:25:34;60.10;;;32.20;;
57341;SDS011;43175;51.002;18.316;2023-01-08T05:28:00;64.10;;;32.70;;
57341;SDS011;43175;51.002;18.316;2023-01-08T05:30:25;64.20;;;33.80;;
57341;SDS011;43175;51.002;18.316;2023-01-08T05:32:51;63.20;;;34.40;;
57341;SDS011;43175;51.002;18.316;2023-01-08T05:35:16;67.60;;;35.20;;
57341;SDS011;43175;51.002;18.316;2023-01-08T05:37:42;61.10;;;31.50;;
57341;SDS011;43175;51.002;18.316;2023-01-08T05:40:08;62.60;;;31.50;;
57341;SDS011;43175;51.002;18.316;2023-01-08T05:42:34;58.20;;;29.10;;
57341;SDS011;43175;51.002;18.316;2023-01-08T05:45:01;58.60;;;30.30;;
57341;SDS011;43175;51.002;18.316;2023-01-08T05:47:28;54.30;;;29.40;;
57341;SDS011;43175;51.002;18.316;2023-01-08T05:49:55;58.90;;;29.70;;
57341;SDS011;43175;51.002;18.316;2023-01-08T05:52:20;57.00;;;29.90;;
57341;SDS011;43175;51.002;18.316;2023-01-08T05:54:46;60.20;;;28.90;;
57341;SDS011;43175;51.002;18.316;2023-01-08T05:57:11;53.10;;;28.30;;
57341;SDS011;43175;51.002;18.316;2023-01-08T05:59:37;58.00;;;29.20;;
57341;SDS011;43175;51.002;18.316;2023-01-08T06:02:02;57.70;;;28.70;;
57341;SDS011;43175;51.002;18.316;2023-01-08T06:04:27;58.40;;;29.00;;
57341;SDS011;43175;51.002;18.316;2023-01-08T06:06:53;57.70;;;29.30;;
57341;SDS011;43175;51.002;18.316;2023-01-08T06:09:18;56.40;;;28.80;;
57341;SDS011;43175;51.002;18.316;2023-01-08T06:11:44;61.30;;;30.60;;
57341;SDS011;43175;51.002;18.316;2023-01-08T06:14:09;54.20;;;29.00;;
57341;SDS011;43175;51.002;18.316;2023-01-08T06:16:34;57.20;;;29.00;;
57341;SDS011;43175;51.002;18.316;2023-01-08T06:19:00;62.00;;;29.10;;
57341;SDS011;43175;51.002;18.316;2023-01-08T06:21:25;58.70;;;29.10;;
57341;SDS011;43175;51.002;18.316;2023-01-08T06:23:51;54.90;;;27.20;;
57341;SDS011;43175;51.002;18.316;2023-01-08T06:26:16;54.00;;;27.00;;
57341;SDS011;43175;51.002;18.316;2023-01-08T06:28:42;55.00;;;27.10;;
57341;SDS011;43175;51.002;18.316;2023-01-08T06:31:07;58.80;;;29.30;;
57341;SDS011;43175;51.002;18.316;2023-01-08T06:33:33;55.70;;;28.60;;
57341;SDS011;43175;51.002;18.316;2023-01-08T06:35:59;58.60;;;29.00;;
57341;SDS011;43175;51.002;18.316;2023-01-08T06:38:29;55.50;;;28.20;;
57341;SDS011;43175;51.002;18.316;2023-01-08T06:40:55;57.90;;;29.30;;
57341;SDS011;43175;51.002;18.316;2023-01-08T06:43:21;54.40;;;28.00;;
57341;SDS011;43175;51.002;18.316;2023-01-08T06:45:53;61.50;;;29.50;;
57341;SDS011;43175;51.002;18.316;2023-01-08T06:50:44;53.90;;;27.60;;
57341;SDS011;43175;51.002;18.316;2023-01-08T06:53:09;64.30;;;30.00;;
57341;SDS011;43175;51.002;18.316;2023-01-08T06:55:35;60.50;;;29.30;;
57341;SDS011;43175;51.002;18.316;2023-01-08T06:58:02;60.60;;;30.20;;
57341;SDS011;43175;51.002;18.316;2023-01-08T07:00:27;65.90;;;31.60;;
57341;SDS011;43175;51.002;18.316;2023-01-08T07:02:53;57.60;;;28.60;;
57341;SDS011;43175;51.002;18.316;2023-01-08T07:05:19;59.90;;;29.50;;
57341;SDS011;43175;51.002;18.316;2023-01-08T07:07:45;58.50;;;28.40;;
57341;SDS011;43175;51.002;18.316;2023-01-08T07:10:10;61.20;;;28.60;;
57341;SDS011;43175;51.002;18.316;2023-01-08T07:12:36;59.60;;;29.00;;
57341;SDS011;43175;51.002;18.316;2023-01-08T07:15:02;57.80;;;28.90;;
57341;SDS011;43175;51.002;18.316;2023-01-08T07:17:30;55.20;;;28.50;;
57341;SDS011;43175;51.002;18.316;2023-01-08T07:19:57;57.00;;;28.00;;
57341;SDS011;43175;51.002;18.316;2023-01-08T07:22:22;55.60;;;27.80;;
57341;SDS011;43175;51.002;18.316;2023-01-08T07:24:48;62.00;;;29.40;;
57341;SDS011;43175;51.002;18.316;2023-01-08T07:27:14;55.80;;;28.50;;
57341;SDS011;43175;51.002;18.316;2023-01-08T07:29:39;57.90;;;29.00;;
57341;SDS011;43175;51.002;18.316;2023-01-08T07:32:04;58.20;;;29.10;;
57341;SDS011;43175;51.002;18.316;2023-01-08T07:34:30;61.00;;;29.90;;
57341;SDS011;43175;51.002;18.316;2023-01-08T07:36:56;61.10;;;28.90;;
57341;SDS011;43175;51.002;18.316;2023-01-08T07:39:22;56.80;;;28.50;;
57341;SDS011;43175;51.002;18.316;2023-01-08T07:41:48;62.40;;;29.80;;
57341;SDS011;43175;51.002;18.316;2023-01-08T07:44:13;58.40;;;29.90;;
57341;SDS011;43175;51.002;18.316;2023-01-08T07:46:39;60.80;;;29.10;;
57341;SDS011;43175;51.002;18.316;2023-01-08T07:49:04;60.50;;;29.00;;
57341;SDS011;43175;51.002;18.316;2023-01-08T07:51:30;60.40;;;29.10;;
57341;SDS011;43175;51.002;18.316;2023-01-08T07:53:56;59.10;;;28.00;;
57341;SDS011;43175;51.002;18.316;2023-01-08T07:56:22;60.80;;;30.20;;
57341;SDS011;43175;51.002;18.316;2023-01-08T07:58:49;57.50;;;28.10;;
57341;SDS011;43175;51.002;18.316;2023-01-08T08:01:14;62.60;;;29.00;;
57341;SDS011;43175;51.002;18.316;2023-01-08T08:03:40;59.10;;;28.50;;
57341;SDS011;43175;51.002;18.316;2023-01-08T08:06:06;63.80;;;29.20;;
57341;SDS011;43175;51.002;18.316;2023-01-08T08:08:31;59.10;;;28.30;;
57341;SDS011;43175;51.002;18.316;2023-01-08T08:10:57;59.00;;;29.50;;
57341;SDS011;43175;51.002;18.316;2023-01-08T08:13:22;63.40;;;29.50;;
57341;SDS011;43175;51.002;18.316;2023-01-08T08:15:48;61.90;;;29.90;;
57341;SDS011;43175;51.002;18.316;2023-01-08T08:18:13;63.40;;;29.90;;
57341;SDS011;43175;51.002;18.316;2023-01-08T08:20:39;61.80;;;29.60;;
57341;SDS011;43175;51.002;18.316;2023-01-08T08:23:05;64.70;;;30.00;;
57341;SDS011;43175;51.002;18.316;2023-01-08T08:25:32;58.50;;;28.10;;
57341;SDS011;43175;51.002;18.316;2023-01-08T08:27:59;61.60;;;28.50;;
57341;SDS011;43175;51.002;18.316;2023-01-08T08:30:25;64.20;;;29.70;;
57341;SDS011;43175;51.002;18.316;2023-01-08T08:32:52;61.60;;;28.10;;
57341;SDS011;43175;51.002;18.316;2023-01-08T08:35:18;62.10;;;29.30;;
57341;SDS011;43175;51.002;18.316;2023-01-08T08:37:44;65.30;;;30.70;;
57341;SDS011;43175;51.002;18.316;2023-01-08T08:40:09;60.00;;;30.20;;
57341;SDS011;43175;51.002;18.316;2023-01-08T08:42:35;63.30;;;29.90;;
57341;SDS011;43175;51.002;18.316;2023-01-08T08:45:00;59.00;;;28.10;;
57341;SDS011;43175;51.002;18.316;2023-01-08T08:47:26;60.90;;;27.60;;
57341;SDS011;43175;51.002;18.316;2023-01-08T08:49:51;60.20;;;28.30;;
57341;SDS011;43175;51.002;18.316;2023-01-08T08:52:17;59.40;;;29.10;;
57341;SDS011;43175;51.002;18.316;2023-01-08T08:54:42;61.80;;;27.90;;
57341;SDS011;43175;51.002;18.316;2023-01-08T08:57:08;59.10;;;27.30;;
57341;SDS011;43175;51.002;18.316;2023-01-08T08:59:34;57.60;;;27.20;;
57341;SDS011;43175;51.002;18.316;2023-01-08T09:01:59;61.70;;;28.60;;
57341;SDS011;43175;51.002;18.316;2023-01-08T09:04:27;58.60;;;26.90;;
57341;SDS011;43175;51.002;18.316;2023-01-08T09:06:54;61.30;;;28.40;;
57341;SDS011;43175;51.002;18.316;2023-01-08T09:09:19;55.50;;;26.40;;
57341;SDS011;43175;51.002;18.316;2023-01-08T09:11:45;55.40;;;26.40;;
57341;SDS011;43175;51.002;18.316;2023-01-08T09:14:11;57.70;;;26.60;;
57341;SDS011;43175;51.002;18.316;2023-01-08T09:16:36;58.20;;;26.90;;
57341;SDS011;43175;51.002;18.316;2023-01-08T09:19:02;51.40;;;25.30;;
57341;SDS011;43175;51.002;18.316;2023-01-08T09:21:28;50.60;;;25.60;;
57341;SDS011;43175;51.002;18.316;2023-01-08T09:23:53;57.20;;;26.30;;
57341;SDS011;43175;51.002;18.316;2023-01-08T09:26:19;54.60;;;25.70;;
57341;SDS011;43175;51.002;18.316;2023-01-08T09:28:44;56.00;;;25.60;;
57341;SDS011;43175;51.002;18.316;2023-01-08T09:31:10;54.30;;;26.50;;
57341;SDS011;43175;51.002;18.316;2023-01-08T09:33:35;53.20;;;26.90;;
57341;SDS011;43175;51.002;18.316;2023-01-08T09:36:01;52.50;;;25.80;;
57341;SDS011;43175;51.002;18.316;2023-01-08T09:38:26;51.60;;;26.20;;
57341;SDS011;43175;51.002;18.316;2023-01-08T09:40:56;49.50;;;25.20;;
57341;SDS011;43175;51.002;18.316;2023-01-08T09:43:24;50.50;;;25.00;;
57341;SDS011;43175;51.002;18.316;2023-01-08T09:45:54;51.30;;;24.30;;
57341;SDS011;43175;51.002;18.316;2023-01-08T09:48:22;47.80;;;24.00;;
57341;SDS011;43175;51.002;18.316;2023-01-08T09:50:49;49.20;;;23.40;;
57341;SDS011;43175;51.002;18.316;2023-01-08T09:53:15;48.80;;;23.20;;
57341;SDS011;43175;51.002;18.316;2023-01-08T09:55:42;48.10;;;22.90;;
57341;SDS011;43175;51.002;18.316;2023-01-08T09:58:23;46.40;;;23.00;;
57341;SDS011;43175;51.002;18.316;2023-01-08T10:00:57;46.70;;;23.90;;
57341;SDS011;43175;51.002;18.316;2023-01-08T10:03:26;43.90;;;22.90;;
57341;SDS011;43175;51.002;18.316;2023-01-08T10:05:54;45.00;;;22.30;;
57341;SDS011;43175;51.002;18.316;2023-01-08T10:08:20;47.70;;;23.60;;
57341;SDS011;43175;51.002;18.316;2023-01-08T10:10:46;45.80;;;23.40;;
57341;SDS011;43175;51.002;18.316;2023-01-08T10:13:11;48.40;;;24.40;;
57341;SDS011;43175;51.002;18.316;2023-01-08T10:15:37;45.30;;;22.40;;
57341;SDS011;43175;51.002;18.316;2023-01-08T10:18:13;45.70;;;22.40;;
57341;SDS011;43175;51.002;18.316;2023-01-08T10:20:42;44.80;;;22.10;;
57341;SDS011;43175;51.002;18.316;2023-01-08T10:23:11;44.90;;;22.20;;
57341;SDS011;43175;51.002;18.316;2023-01-08T10:25:49;42.20;;;22.30;;
57341;SDS011;43175;51.002;18.316;2023-01-08T10:28:26;46.40;;;22.40;;
57341;SDS011;43175;51.002;18.316;2023-01-08T10:30:53;42.70;;;22.10;;
57341;SDS011;43175;51.002;18.316;2023-01-08T10:33:36;45.40;;;23.10;;
57341;SDS011;43175;51.002;18.316;2023-01-08T10:36:05;50.40;;;26.50;;
57341;SDS011;43175;51.002;18.316;2023-01-08T10:38:33;49.60;;;24.60;;
57341;SDS011;43175;51.002;18.316;2023-01-08T10:41:02;45.50;;;23.70;;
57341;SDS011;43175;51.002;18.316;2023-01-08T10:43:30;44.80;;;23.30;;
57341;SDS011;43175;51.002;18.316;2023-01-08T10:46:03;46.50;;;25.20;;
57341;SDS011;43175;51.002;18.316;2023-01-08T10:48:36;45.30;;;24.90;;
57341;SDS011;43175;51.002;18.316;2023-01-08T10:51:04;46.20;;;22.30;;
57341;SDS011;43175;51.002;18.316;2023-01-08T10:54:12;43.90;;;22.20;;
57341;SDS011;43175;51.002;18.316;2023-01-08T10:56:40;51.30;;;27.00;;
57341;SDS011;43175;51.002;18.316;2023-01-08T10:59:22;41.50;;;22.60;;
57341;SDS011;43175;51.002;18.316;2023-01-08T11:01:50;47.30;;;24.10;;
57341;SDS011;43175;51.002;18.316;2023-01-08T11:04:21;46.30;;;24.50;;
57341;SDS011;43175;51.002;18.316;2023-01-08T11:06:59;44.60;;;23.40;;
57341;SDS011;43175;51.002;18.316;2023-01-08T11:09:26;44.20;;;24.30;;
57341;SDS011;43175;51.002;18.316;2023-01-08T11:11:54;48.70;;;24.50;;
57341;SDS011;43175;51.002;18.316;2023-01-08T11:14:21;45.60;;;24.60;;
57341;SDS011;43175;51.002;18.316;2023-01-08T11:16:59;42.30;;;22.20;;
57341;SDS011;43175;51.002;18.316;2023-01-08T11:19:28;42.50;;;23.00;;
57341;SDS011;43175;51.002;18.316;2023-01-08T11:24:28;42.00;;;23.80;;
57341;SDS011;43175;51.002;18.316;2023-01-08T11:29:28;43.30;;;22.70;;
57341;SDS011;43175;51.002;18.316;2023-01-08T11:31:58;43.70;;;22.10;;
57341;SDS011;43175;51.002;18.316;2023-01-08T11:34:38;42.60;;;22.80;;
57341;SDS011;43175;51.002;18.316;2023-01-08T11:37:13;41.40;;;21.60;;
57341;SDS011;43175;51.002;18.316;2023-01-08T11:42:26;41.00;;;20.30;;
57341;SDS011;43175;51.002;18.316;2023-01-08T11:48:16;40.50;;;21.30;;
57341;SDS011;43175;51.002;18.316;2023-01-08T11:53:26;42.20;;;23.10;;
57341;SDS011;43175;51.002;18.316;2023-01-08T12:04:46;39.60;;;20.30;;
57341;SDS011;43175;51.002;18.316;2023-01-08T12:07:31;40.70;;;20.50;;
57341;SDS011;43175;51.002;18.316;2023-01-08T12:24:12;35.10;;;19.40;;
57341;SDS011;43175;51.002;18.316;2023-01-08T12:27:04;36.30;;;19.70;;
57341;SDS011;43175;51.002;18.316;2023-01-08T12:29:52;35.10;;;18.90;;
57341;SDS011;43175;51.002;18.316;2023-01-08T12:41:06;34.30;;;18.60;;
57341;SDS011;43175;51.002;18.316;2023-01-08T12:43:44;36.80;;;19.20;;
57341;SDS011;43175;51.002;18.316;2023-01-08T12:46:17;34.60;;;19.90;;
57341;SDS011;43175;51.002;18.316;2023-01-08T12:48:44;39.20;;;22.70;;
57341;SDS011;43175;51.002;18.316;2023-01-08T12:56:22;36.60;;;21.30;;
57341;SDS011;43175;51.002;18.316;2023-01-08T13:03:52;35.50;;;20.20;;
57341;SDS011;43175;51.002;18.316;2023-01-08T13:06:19;35.30;;;20.20;;
57341;SDS011;43175;51.002;18.316;2023-01-08T13:08:47;35.20;;;20.50;;
57341;SDS011;43175;51.002;18.316;2023-01-08T13:11:22;35.10;;;21.10;;
57341;SDS011;43175;51.002;18.316;2023-01-08T13:13:57;36.80;;;19.30;;
57341;SDS011;43175;51.002;18.316;2023-01-08T13:16:24;32.80;;;18.60;;
57341;SDS011;43175;51.002;18.316;2023-01-08T13:18:54;34.90;;;19.40;;
57341;SDS011;43175;51.002;18.316;2023-01-08T13:21:34;33.10;;;19.30;;
57341;SDS011;43175;51.002;18.316;2023-01-08T13:24:04;32.50;;;17.90;;
57341;SDS011;43175;51.002;18.316;2023-01-08T13:26:42;35.60;;;18.80;;
57341;SDS011;43175;51.002;18.316;2023-01-08T13:29:22;37.00;;;20.80;;
57341;SDS011;43175;51.002;18.316;2023-01-08T13:31:49;38.00;;;21.00;;
57341;SDS011;43175;51.002;18.316;2023-01-08T13:34:20;41.20;;;22.80;;
57341;SDS011;43175;51.002;18.316;2023-01-08T13:36:54;36.50;;;19.80;;
57341;SDS011;43175;51.002;18.316;2023-01-08T13:39:21;35.50;;;20.90;;
57341;SDS011;43175;51.002;18.316;2023-01-08T13:41:58;36.00;;;18.50;;
57341;SDS011;43175;51.002;18.316;2023-01-08T13:44:30;35.30;;;19.00;;
57341;SDS011;43175;51.002;18.316;2023-01-08T13:47:02;36.70;;;19.30;;
57341;SDS011;43175;51.002;18.316;2023-01-08T13:49:51;32.90;;;18.50;;
57341;SDS011;43175;51.002;18.316;2023-01-08T13:55:04;37.20;;;20.10;;
57341;SDS011;43175;51.002;18.316;2023-01-08T13:57:38;38.60;;;21.20;;
57341;SDS011;43175;51.002;18.316;2023-01-08T14:00:07;42.80;;;26.60;;
57341;SDS011;43175;51.002;18.316;2023-01-08T14:02:42;37.90;;;22.40;;
57341;SDS011;43175;51.002;18.316;2023-01-08T14:05:19;47.20;;;27.60;;
57341;SDS011;43175;51.002;18.316;2023-01-08T14:07:46;47.10;;;25.70;;
57341;SDS011;43175;51.002;18.316;2023-01-08T14:10:12;53.10;;;29.50;;
57341;SDS011;43175;51.002;18.316;2023-01-08T14:12:38;53.30;;;31.20;;
57341;SDS011;43175;51.002;18.316;2023-01-08T14:15:06;124.50;;;69.80;;
57341;SDS011;43175;51.002;18.316;2023-01-08T14:17:34;90.30;;;49.80;;
57341;SDS011;43175;51.002;18.316;2023-01-08T14:20:00;61.40;;;35.00;;
57341;SDS011;43175;51.002;18.316;2023-01-08T14:22:30;53.70;;;27.60;;
57341;SDS011;43175;51.002;18.316;2023-01-08T14:24:57;48.20;;;24.50;;
57341;SDS011;43175;51.002;18.316;2023-01-08T14:27:27;38.80;;;21.30;;
57341;SDS011;43175;51.002;18.316;2023-01-08T14:29:54;37.10;;;19.50;;
57341;SDS011;43175;51.002;18.316;2023-01-08T14:32:21;36.30;;;20.10;;
57341;SDS011;43175;51.002;18.316;2023-01-08T14:34:48;39.80;;;20.60;;
57341;SDS011;43175;51.002;18.316;2023-01-08T14:37:15;36.30;;;19.60;;
57341;SDS011;43175;51.002;18.316;2023-01-08T14:39:41;36.00;;;19.20;;
57341;SDS011;43175;51.002;18.316;2023-01-08T14:42:08;37.40;;;20.80;;
57341;SDS011;43175;51.002;18.316;2023-01-08T14:45:01;37.30;;;20.40;;
57341;SDS011;43175;51.002;18.316;2023-01-08T14:47:43;37.60;;;20.40;;
57341;SDS011;43175;51.002;18.316;2023-01-08T14:50:17;38.80;;;21.90;;
57341;SDS011;43175;51.002;18.316;2023-01-08T14:52:44;58.40;;;28.10;;
57341;SDS011;43175;51.002;18.316;2023-01-08T14:55:12;57.40;;;30.00;;
57341;SDS011;43175;51.002;18.316;2023-01-08T14:57:42;54.80;;;28.90;;
57341;SDS011;43175;51.002;18.316;2023-01-08T15:00:17;55.10;;;30.90;;
57341;SDS011;43175;51.002;18.316;2023-01-08T15:02:46;67.60;;;31.00;;
57341;SDS011;43175;51.002;18.316;2023-01-08T15:05:13;49.00;;;23.20;;
57341;SDS011;43175;51.002;18.316;2023-01-08T15:07:58;42.40;;;22.40;;
57341;SDS011;43175;51.002;18.316;2023-01-08T15:10:31;49.00;;;27.50;;
57341;SDS011;43175;51.002;18.316;2023-01-08T15:15:28;40.00;;;22.70;;
57341;SDS011;43175;51.002;18.316;2023-01-08T15:17:54;39.00;;;20.10;;
57341;SDS011;43175;51.002;18.316;2023-01-08T15:20:21;37.00;;;20.20;;
57341;SDS011;43175;51.002;18.316;2023-01-08T15:22:49;36.80;;;20.80;;
57341;SDS011;43175;51.002;18.316;2023-01-08T15:25:15;39.80;;;22.50;;
57341;SDS011;43175;51.002;18.316;2023-01-08T15:27:51;40.40;;;22.00;;